createdAt,value
2023-03-20T00:02:23.033Z,2.05
2023-03-20T00:04:55.372Z,2.04
2023-03-20T00:07:30.879Z,2.02
2023-03-20T00:10:02.799Z,1.98
2023-03-20T00:12:52.009Z,1.93
2023-03-20T00:15:25.009Z,1.88
2023-03-20T00:17:53.386Z,1.85
2023-03-20T00:20:28.391Z,1.83
2023-03-20T00:22:58.110Z,1.83
2023-03-20T00:25:26.882Z,1.83
2023-03-20T00:27:56.738Z,1.82
2023-03-20T00:30:29.719Z,1.75
2023-03-20T00:32:58.771Z,1.67
2023-03-20T00:35:29.897Z,1.64
2023-03-20T00:38:04.002Z,1.62
2023-03-20T00:40:35.699Z,1.60
2023-03-20T00:43:05.096Z,1.53
2023-03-20T00:45:34.456Z,1.45
2023-03-20T00:48:03.799Z,1.40
2023-03-20T00:50:32.182Z,1.38
2023-03-20T00:53:01.878Z,1.35
2023-03-20T00:55:30.460Z,1.33
2023-03-20T00:58:01.598Z,1.34
2023-03-20T01:00:43.606Z,1.35
2023-03-20T01:03:15.658Z,1.36
2023-03-20T01:05:44.649Z,1.37
2023-03-20T01:08:15.067Z,1.38
2023-03-20T01:10:47.496Z,1.38
2023-03-20T01:13:25.092Z,1.34
2023-03-20T01:15:54.125Z,1.25
2023-03-20T01:18:23.174Z,1.19
2023-03-20T01:20:53.154Z,1.17
2023-03-20T01:23:23.131Z,1.15
2023-03-20T01:25:54.788Z,1.14
2023-03-20T01:28:24.024Z,1.13
2023-03-20T01:30:52.909Z,1.13
2023-03-20T01:33:41.772Z,1.15
2023-03-20T01:36:12.137Z,1.13
2023-03-20T01:38:40.528Z,1.08
2023-03-20T01:41:22.979Z,1.04
2023-03-20T01:43:51.730Z,1.03
2023-03-20T01:46:25.765Z,1.04
2023-03-20T01:49:00.515Z,1.04
2023-03-20T01:51:33.166Z,1.00
2023-03-20T01:54:10.422Z,0.97
2023-03-20T01:56:54.458Z,0.97
2023-03-20T02:00:01.750Z,0.95
2023-03-20T02:02:32.091Z,0.92
2023-03-20T02:05:03.207Z,0.89
2023-03-20T02:07:32.108Z,0.89
2023-03-20T02:10:13.577Z,0.90
2023-03-20T02:12:48.104Z,0.90
2023-03-20T02:15:20.558Z,0.90
2023-03-20T02:18:11.812Z,0.90
2023-03-20T02:21:22.155Z,0.89
2023-03-20T02:24:04.245Z,0.89
2023-03-20T02:26:44.320Z,0.86
2023-03-20T02:29:16.939Z,0.84
2023-03-20T02:32:00.521Z,0.82
2023-03-20T02:34:29.835Z,0.78
2023-03-20T02:37:21.992Z,0.76
2023-03-20T02:39:56.640Z,0.72
2023-03-20T02:42:58.336Z,0.67
2023-03-20T02:45:34.184Z,0.62
2023-03-20T02:48:40.754Z,0.54
2023-03-20T02:51:40.124Z,0.51
2023-03-20T02:54:18.488Z,0.45
2023-03-20T02:56:52.619Z,0.37
2023-03-20T02:59:49.456Z,0.33
2023-03-20T03:02:24.771Z,0.30
2023-03-20T03:05:00.202Z,0.27
2023-03-20T03:07:33.000Z,0.22
2023-03-20T03:10:07.060Z,0.15
2023-03-20T03:12:38.218Z,0.14
2023-03-20T03:15:36.456Z,0.12
2023-03-20T03:18:07.764Z,0.08
2023-03-20T03:20:38.225Z,0.06
2023-03-20T03:23:06.871Z,0.08
2023-03-20T03:25:37.944Z,0.12
2023-03-20T03:28:13.800Z,0.16
2023-03-20T03:30:45.364Z,0.21
2023-03-20T03:33:21.277Z,0.22
2023-03-20T03:35:55.432Z,0.22
2023-03-20T03:38:49.161Z,0.20
2023-03-20T03:41:17.342Z,0.19
2023-03-20T03:43:52.253Z,0.19
2023-03-20T03:46:25.665Z,0.17
2023-03-20T03:48:57.159Z,0.16
2023-03-20T03:51:28.325Z,0.16
2023-03-20T03:54:12.151Z,0.18
2023-03-20T03:56:41.701Z,0.16
2023-03-20T03:59:36.242Z,0.16
2023-03-20T04:02:05.938Z,0.13
2023-03-20T04:04:37.327Z,0.13
2023-03-20T04:07:05.715Z,0.10
2023-03-20T04:09:35.170Z,0.08
2023-03-20T04:12:29.659Z,0.07
2023-03-20T04:14:57.962Z,0.04
2023-03-20T04:17:28.103Z,-0.00
2023-03-20T04:19:58.093Z,-0.13
2023-03-20T04:22:27.087Z,-0.27
2023-03-20T04:24:57.276Z,-0.32
2023-03-20T04:27:29.195Z,-0.30
2023-03-20T04:29:58.322Z,-0.26
2023-03-20T04:32:47.526Z,-0.21
2023-03-20T04:35:21.563Z,-0.16
2023-03-20T04:37:54.970Z,-0.09
2023-03-20T04:40:23.332Z,-0.04
2023-03-20T04:42:52.680Z,-0.05
2023-03-20T04:45:21.215Z,-0.01
2023-03-20T04:47:55.171Z,0.10
2023-03-20T04:50:24.671Z,0.23
2023-03-20T04:52:53.797Z,0.36
2023-03-20T04:55:23.295Z,0.49
2023-03-20T04:57:52.170Z,0.55
2023-03-20T05:00:20.646Z,0.62
2023-03-20T05:02:49.324Z,0.74
2023-03-20T05:05:18.297Z,0.90
2023-03-20T05:07:52.455Z,1.08
2023-03-20T05:10:32.274Z,1.27
2023-03-20T05:13:07.887Z,1.42
2023-03-20T05:15:56.677Z,1.58
2023-03-20T05:18:45.656Z,1.75
2023-03-20T05:21:35.123Z,1.93
2023-03-20T05:24:27.601Z,2.13
2023-03-20T05:27:33.424Z,2.34
2023-03-20T05:30:17.070Z,2.54
2023-03-20T05:33:06.867Z,2.74
2023-03-20T05:35:44.691Z,2.92
2023-03-20T05:38:36.968Z,3.09
2023-03-20T05:41:18.416Z,3.23
2023-03-20T05:44:04.556Z,3.29
2023-03-20T05:46:45.842Z,3.35
2023-03-20T05:49:19.798Z,3.43
2023-03-20T05:52:17.048Z,3.52
2023-03-20T05:55:04.822Z,3.60
2023-03-20T05:57:46.881Z,3.70
2023-03-20T06:00:29.759Z,3.80
2023-03-20T06:03:24.355Z,3.91
2023-03-20T06:06:07.039Z,4.08
2023-03-20T06:08:36.840Z,4.25
2023-03-20T06:11:05.352Z,4.46
2023-03-20T06:13:36.549Z,4.63
2023-03-20T06:16:09.055Z,4.79
2023-03-20T06:18:39.380Z,4.94
2023-03-20T06:21:09.496Z,5.14
2023-03-20T06:23:38.727Z,5.31
2023-03-20T06:26:07.124Z,5.53
2023-03-20T06:28:46.121Z,5.80
2023-03-20T06:31:16.689Z,6.03
2023-03-20T06:33:45.610Z,6.26
2023-03-20T06:36:14.539Z,6.47
2023-03-20T06:38:44.071Z,6.64
2023-03-20T06:41:24.587Z,6.79
2023-03-20T06:44:05.038Z,7.01
2023-03-20T06:46:52.315Z,7.22
2023-03-20T06:49:21.544Z,7.39
2023-03-20T06:51:50.451Z,7.55
2023-03-20T06:54:26.340Z,7.72
2023-03-20T06:56:54.983Z,7.88
2023-03-20T06:59:24.225Z,7.99
2023-03-20T07:01:57.269Z,8.13
2023-03-20T07:04:27.759Z,8.27
2023-03-20T07:07:02.182Z,8.41
2023-03-20T07:09:33.396Z,8.51
2023-03-20T07:12:03.010Z,8.58
2023-03-20T07:14:32.322Z,8.68
2023-03-20T07:17:05.767Z,8.78
2023-03-20T07:19:38.127Z,8.88
2023-03-20T07:22:08.152Z,8.98
2023-03-20T07:24:40.694Z,9.04
2023-03-20T07:27:14.555Z,9.10
2023-03-20T07:29:43.586Z,9.18
2023-03-20T07:32:14.472Z,9.31
2023-03-20T07:34:51.042Z,9.45
2023-03-20T07:37:20.426Z,9.59
2023-03-20T07:40:01.180Z,9.72
2023-03-20T07:42:36.107Z,9.80
2023-03-20T07:45:17.066Z,9.91
2023-03-20T07:47:48.686Z,10.02
2023-03-20T07:50:17.318Z,10.17
2023-03-20T07:52:49.475Z,10.33
2023-03-20T07:55:18.696Z,10.46
2023-03-20T07:57:49.765Z,10.54
2023-03-20T08:00:20.131Z,10.60
2023-03-20T08:02:51.891Z,10.68
2023-03-20T08:05:22.038Z,10.76
2023-03-20T08:07:51.510Z,10.87
2023-03-20T08:10:20.043Z,10.96
2023-03-20T08:12:48.622Z,11.00
2023-03-20T08:15:17.380Z,11.10
2023-03-20T08:17:45.939Z,11.21
2023-03-20T08:20:16.412Z,11.34
2023-03-20T08:22:44.931Z,11.47
2023-03-20T08:25:13.534Z,11.58
2023-03-20T08:27:42.226Z,11.68
2023-03-20T08:30:11.107Z,11.76
2023-03-20T08:32:59.177Z,11.87
2023-03-20T08:35:33.199Z,11.98
2023-03-20T08:38:02.142Z,12.10
2023-03-20T08:40:30.994Z,12.06
2023-03-20T08:42:59.465Z,12.07
2023-03-20T08:45:33.160Z,12.15
2023-03-20T08:48:01.936Z,12.21
2023-03-20T08:50:34.617Z,12.32
2023-03-20T08:53:03.045Z,12.42
2023-03-20T08:55:31.252Z,12.44
2023-03-20T08:58:00.679Z,12.49
2023-03-20T09:00:29.362Z,12.53
2023-03-20T09:02:57.988Z,12.53
2023-03-20T09:05:27.495Z,12.56
2023-03-20T09:07:55.948Z,12.65
2023-03-20T09:10:24.640Z,12.72
2023-03-20T09:12:53.039Z,12.77
2023-03-20T09:15:23.778Z,12.81
2023-03-20T09:17:55.626Z,12.85
2023-03-20T09:20:24.589Z,12.92
2023-03-20T09:22:54.094Z,12.97
2023-03-20T09:25:22.317Z,12.97
2023-03-20T09:27:57.483Z,12.98
2023-03-20T09:30:26.126Z,13.03
2023-03-20T09:32:55.785Z,13.10
2023-03-20T09:35:24.251Z,13.21
2023-03-20T09:37:52.863Z,13.32
2023-03-20T09:40:40.962Z,13.43
2023-03-20T09:43:37.626Z,13.55
2023-03-20T09:46:49.796Z,13.64
2023-03-20T09:49:42.744Z,13.73
2023-03-20T09:52:32.844Z,13.86
2023-03-20T09:55:08.176Z,13.82
2023-03-20T09:57:40.090Z,13.83
2023-03-20T10:00:17.790Z,13.84
2023-03-20T10:03:01.293Z,13.87
2023-03-20T10:05:31.530Z,13.89
2023-03-20T10:08:01.966Z,13.92
2023-03-20T10:10:47.153Z,13.98
2023-03-20T10:13:37.709Z,13.99
2023-03-20T10:16:22.734Z,13.96
2023-03-20T10:19:24.975Z,13.90
2023-03-20T10:22:02.186Z,13.94
2023-03-20T10:24:36.586Z,14.05
2023-03-20T10:27:34.853Z,14.09
2023-03-20T10:30:27.165Z,14.13
2023-03-20T10:33:07.852Z,14.23
2023-03-20T10:35:43.646Z,14.35
2023-03-20T10:38:49.192Z,14.49
2023-03-20T10:41:19.250Z,14.58
2023-03-20T10:43:51.614Z,14.51
2023-03-20T10:46:35.757Z,14.49
2023-03-20T10:49:19.097Z,14.56
2023-03-20T10:52:00.263Z,14.63
2023-03-20T10:54:34.653Z,14.64
2023-03-20T10:57:04.797Z,14.59
2023-03-20T10:59:38.954Z,14.59
2023-03-20T11:02:12.692Z,14.79
2023-03-20T11:04:41.081Z,15.03
2023-03-20T11:07:12.213Z,15.19
2023-03-20T11:09:40.822Z,15.27
2023-03-20T11:12:20.890Z,15.33
2023-03-20T11:14:54.362Z,15.49
2023-03-20T11:17:23.038Z,15.67
2023-03-20T11:19:51.481Z,15.83
2023-03-20T11:22:23.588Z,15.87
2023-03-20T11:24:54.316Z,15.79
2023-03-20T11:27:28.506Z,15.76
2023-03-20T11:29:59.688Z,15.79
2023-03-20T11:32:36.293Z,15.86
2023-03-20T11:35:20.628Z,15.99
2023-03-20T11:37:52.240Z,16.09
2023-03-20T11:40:25.952Z,16.17
2023-03-20T11:43:06.495Z,16.28
2023-03-20T11:45:39.255Z,16.41
2023-03-20T11:48:23.755Z,16.44
2023-03-20T11:51:04.444Z,16.46
2023-03-20T11:53:46.398Z,16.51
2023-03-20T11:56:23.110Z,16.56
2023-03-20T11:59:04.937Z,16.66
2023-03-20T12:01:50.936Z,16.80
2023-03-20T12:04:28.248Z,16.89
2023-03-20T12:07:12.864Z,16.97
2023-03-20T12:10:06.506Z,17.10
2023-03-20T12:12:37.171Z,17.14
2023-03-20T12:15:17.277Z,17.10
2023-03-20T12:18:02.827Z,16.93
2023-03-20T12:20:41.877Z,16.92
2023-03-20T12:23:12.175Z,17.01
2023-03-20T12:26:07.452Z,17.04
2023-03-20T12:28:41.818Z,17.02
2023-03-20T12:31:19.293Z,17.03
2023-03-20T12:34:06.595Z,16.98
2023-03-20T12:36:39.697Z,16.92
2023-03-20T12:39:35.407Z,16.76
2023-03-20T12:42:35.821Z,16.64
2023-03-20T12:45:26.696Z,16.67
2023-03-20T12:48:22.590Z,16.75
2023-03-20T12:51:03.085Z,16.81
2023-03-20T12:54:00.510Z,16.80
2023-03-20T12:56:48.341Z,16.73
2023-03-20T12:59:25.352Z,16.64
2023-03-20T13:01:57.691Z,16.69
2023-03-20T13:04:45.128Z,16.82
2023-03-20T13:07:29.580Z,16.99
2023-03-20T13:10:04.067Z,17.12
2023-03-20T13:12:37.515Z,17.22
2023-03-20T13:15:30.459Z,17.23
2023-03-20T13:18:05.419Z,17.39
2023-03-20T13:20:54.458Z,17.59
2023-03-20T13:23:48.631Z,17.80
2023-03-20T13:26:39.222Z,17.88
2023-03-20T13:29:19.279Z,17.91
2023-03-20T13:31:50.528Z,17.92
2023-03-20T13:34:32.125Z,17.94
2023-03-20T13:37:23.891Z,18.04
2023-03-20T13:39:52.969Z,18.23
2023-03-20T13:42:22.270Z,18.38
2023-03-20T13:44:51.347Z,18.35
2023-03-20T13:47:22.293Z,18.21
2023-03-20T13:50:03.968Z,18.12
2023-03-20T13:52:46.057Z,18.11
2023-03-20T13:55:43.520Z,18.14
2023-03-20T13:58:22.765Z,18.22
2023-03-20T14:01:03.057Z,18.22
2023-03-20T14:03:38.679Z,18.10
2023-03-20T14:06:32.645Z,17.96
2023-03-20T14:09:37.157Z,17.79
2023-03-20T14:12:10.554Z,17.62
2023-03-20T14:14:56.784Z,17.45
2023-03-20T14:17:29.190Z,17.21
2023-03-20T14:19:57.800Z,16.94
2023-03-20T14:22:30.760Z,16.64
2023-03-20T14:25:25.091Z,16.39
2023-03-20T14:27:54.766Z,16.20
2023-03-20T14:30:51.400Z,16.01
2023-03-20T14:33:26.280Z,15.83
2023-03-20T14:36:22.695Z,15.72
2023-03-20T14:39:00.309Z,15.58
2023-03-20T14:41:38.974Z,15.49
2023-03-20T14:44:36.088Z,15.39
2023-03-20T14:47:10.807Z,15.28
2023-03-20T14:49:42.899Z,15.18
2023-03-20T14:52:15.343Z,15.02
2023-03-20T14:54:43.677Z,14.86
2023-03-20T14:57:26.551Z,14.73
2023-03-20T14:59:54.826Z,14.58
2023-03-20T15:02:28.419Z,14.42
2023-03-20T15:05:01.125Z,14.29
2023-03-20T15:07:31.804Z,14.17
2023-03-20T15:10:03.067Z,14.05
2023-03-20T15:12:35.338Z,13.98
2023-03-20T15:15:05.994Z,13.91
2023-03-20T15:17:41.990Z,13.83
2023-03-20T15:20:28.918Z,13.76
2023-03-20T15:23:01.296Z,13.70
2023-03-20T15:25:42.196Z,13.67
2023-03-20T15:28:21.903Z,13.61
2023-03-20T15:30:53.803Z,13.53
2023-03-20T15:33:35.416Z,13.43
2023-03-20T15:36:09.092Z,13.33
2023-03-20T15:38:37.499Z,13.28
2023-03-20T15:41:07.584Z,13.23
2023-03-20T15:43:37.004Z,13.17
2023-03-20T15:46:17.975Z,13.11
2023-03-20T15:48:48.990Z,13.02
2023-03-20T15:51:19.884Z,12.95
2023-03-20T15:53:48.442Z,12.86
2023-03-20T15:56:19.471Z,12.75
2023-03-20T15:58:49.844Z,12.64
2023-03-20T16:01:21.205Z,12.53
2023-03-20T16:03:49.648Z,12.41
2023-03-20T16:06:21.598Z,12.29
2023-03-20T16:09:01.626Z,12.17
2023-03-20T16:11:38.735Z,12.05
2023-03-20T16:14:32.041Z,11.92
2023-03-20T16:17:01.350Z,11.81
2023-03-20T16:19:30.106Z,11.73
2023-03-20T16:22:33.750Z,11.64
2023-03-20T16:25:02.387Z,11.53
2023-03-20T16:27:33.946Z,11.44
2023-03-20T16:30:06.994Z,11.36
2023-03-20T16:32:39.089Z,11.25
2023-03-20T16:35:16.624Z,11.17
2023-03-20T16:37:53.214Z,11.10
2023-03-20T16:40:34.094Z,11.03
2023-03-20T16:43:30.351Z,10.95
2023-03-20T16:46:03.938Z,10.85
2023-03-20T16:48:34.678Z,10.77
2023-03-20T16:51:26.423Z,10.69
2023-03-20T16:53:58.521Z,10.60
2023-03-20T16:56:40.582Z,10.52
2023-03-20T16:59:09.716Z,10.43
2023-03-20T17:01:41.479Z,10.37
2023-03-20T17:04:18.394Z,10.31
2023-03-20T17:07:09.854Z,10.26
2023-03-20T17:09:38.269Z,10.20
2023-03-20T17:12:18.162Z,10.18
2023-03-20T17:14:50.920Z,10.16
2023-03-20T17:17:23.237Z,10.13
2023-03-20T17:19:53.364Z,10.10
2023-03-20T17:22:24.553Z,10.05
2023-03-20T17:24:55.944Z,10.00
2023-03-20T17:27:25.645Z,9.94
2023-03-20T17:29:57.597Z,9.87
2023-03-20T17:32:26.276Z,9.82
2023-03-20T17:34:55.104Z,9.76
2023-03-20T17:37:29.730Z,9.71
2023-03-20T17:40:00.935Z,9.65
2023-03-20T17:42:32.484Z,9.61
2023-03-20T17:45:03.403Z,9.56
2023-03-20T17:47:45.731Z,9.49
2023-03-20T17:50:30.452Z,9.44
2023-03-20T17:52:58.812Z,9.38
2023-03-20T17:55:27.566Z,9.31
2023-03-20T17:57:56.427Z,9.25
2023-03-20T18:00:31.394Z,9.21
2023-03-20T18:02:59.785Z,9.17
2023-03-20T18:05:28.818Z,9.14
2023-03-20T18:07:57.258Z,9.09
2023-03-20T18:10:32.218Z,9.05
2023-03-20T18:13:02.440Z,9.01
2023-03-20T18:15:32.391Z,8.94
2023-03-20T18:18:01.476Z,8.86
2023-03-20T18:20:31.646Z,8.75
2023-03-20T18:23:01.146Z,8.70
2023-03-20T18:25:30.644Z,8.67
2023-03-20T18:28:00.977Z,8.63
2023-03-20T18:30:37.128Z,8.52
2023-03-20T18:33:10.066Z,8.41
2023-03-20T18:35:39.289Z,8.36
2023-03-20T18:38:21.624Z,8.33
2023-03-20T18:40:50.253Z,8.32
2023-03-20T18:43:21.047Z,8.31
2023-03-20T18:45:51.664Z,8.30
2023-03-20T18:48:42.090Z,8.28
2023-03-20T18:51:11.964Z,8.25
2023-03-20T18:53:43.664Z,8.24
2023-03-20T18:56:17.540Z,8.21
2023-03-20T18:58:49.109Z,8.11
2023-03-20T19:01:17.458Z,7.94
2023-03-20T19:03:46.428Z,7.81
2023-03-20T19:06:17.342Z,7.72
2023-03-20T19:08:46.826Z,7.61
2023-03-20T19:11:17.878Z,7.51
2023-03-20T19:13:51.313Z,7.48
2023-03-20T19:16:24.757Z,7.46
2023-03-20T19:18:55.480Z,7.39
2023-03-20T19:21:26.578Z,7.30
2023-03-20T19:24:05.611Z,7.21
2023-03-20T19:26:36.008Z,7.13
2023-03-20T19:29:10.751Z,7.05
2023-03-20T19:31:40.004Z,6.98
2023-03-20T19:34:21.216Z,6.97
2023-03-20T19:37:06.959Z,6.99
2023-03-20T19:39:36.369Z,7.01
2023-03-20T19:42:30.361Z,7.04
2023-03-20T19:45:14.241Z,7.04
2023-03-20T19:47:42.722Z,7.04
2023-03-20T19:50:36.260Z,7.03
2023-03-20T19:53:10.285Z,7.02
2023-03-20T19:55:39.016Z,7.00
2023-03-20T19:58:08.629Z,6.97
2023-03-20T20:03:30.574Z,6.92
2023-03-20T20:06:02.779Z,6.91
2023-03-20T20:08:45.190Z,6.89
2023-03-20T20:11:21.316Z,6.84
2023-03-20T20:14:08.148Z,6.81
2023-03-20T20:16:40.256Z,6.77
2023-03-20T20:19:12.186Z,6.70
2023-03-20T20:24:32.007Z,6.54
2023-03-20T20:27:16.313Z,6.51
2023-03-20T20:29:50.650Z,6.49
2023-03-20T20:32:24.766Z,6.47
2023-03-20T20:38:33.648Z,6.42
2023-03-20T20:40:44.667Z,6.40
2023-03-20T20:43:34.845Z,6.38
2023-03-20T20:46:02.362Z,6.36
2023-03-20T20:48:31.845Z,6.33
2023-03-20T20:51:01.348Z,6.31
2023-03-20T20:53:31.135Z,6.26
2023-03-20T20:55:59.834Z,6.25
2023-03-20T20:58:29.364Z,6.24
2023-03-20T21:00:58.599Z,6.22
2023-03-20T21:03:29.169Z,6.20
2023-03-20T21:06:04.233Z,6.20
2023-03-20T21:08:34.980Z,6.18
2023-03-20T21:11:13.647Z,6.17
2023-03-20T21:13:42.940Z,6.16
2023-03-20T21:16:12.617Z,6.14
2023-03-20T21:18:47.189Z,6.01
2023-03-20T21:21:16.192Z,5.85
2023-03-20T21:23:44.482Z,5.76
2023-03-20T21:26:15.041Z,5.74
2023-03-20T21:28:43.434Z,5.72
2023-03-20T21:31:24.808Z,5.67
2023-03-20T21:33:55.586Z,5.64
2023-03-20T21:36:24.082Z,5.64
2023-03-20T21:39:09.290Z,5.63
2023-03-20T21:41:38.510Z,5.54
2023-03-20T21:44:07.634Z,5.42
2023-03-20T21:55:52.125Z,5.15
2023-03-20T22:04:54.630Z,5.00
2023-03-20T22:13:24.589Z,5.03
2023-03-20T22:15:39.426Z,5.01
2023-03-20T22:18:38.396Z,5.01
2023-03-20T22:21:31.692Z,5.00
2023-03-20T22:24:24.776Z,5.03
2023-03-20T22:30:01.594Z,5.05
2023-03-20T22:32:44.162Z,5.04
2023-03-20T22:41:21.892Z,4.95
2023-03-20T22:44:13.653Z,4.93
2023-03-20T22:46:32.478Z,4.90
2023-03-20T22:48:56.975Z,4.83
2023-03-20T22:51:32.637Z,4.80
2023-03-20T22:54:06.011Z,4.79
2023-03-20T22:56:36.305Z,4.77
2023-03-20T22:59:05.083Z,4.73
2023-03-20T23:01:33.871Z,4.68
2023-03-20T23:04:02.093Z,4.65
2023-03-20T23:06:35.483Z,4.64
2023-03-20T23:09:14.427Z,4.64
2023-03-20T23:11:44.079Z,4.61
2023-03-20T23:14:25.024Z,4.58
2023-03-20T23:16:55.712Z,4.56
2023-03-20T23:19:25.410Z,4.52
2023-03-20T23:21:53.940Z,4.50
2023-03-20T23:24:22.513Z,4.46
2023-03-20T23:26:52.760Z,4.36
2023-03-20T23:29:21.545Z,4.30
2023-03-20T23:31:49.812Z,4.27
2023-03-20T23:34:18.973Z,4.27
2023-03-20T23:36:47.792Z,4.25
2023-03-20T23:39:16.236Z,4.23
2023-03-20T23:44:32.949Z,4.18
2023-03-20T23:47:03.304Z,4.15
2023-03-20T23:49:32.188Z,4.12
2023-03-20T23:52:00.345Z,4.11
2023-03-20T23:54:28.621Z,4.10
2023-03-20T23:56:57.325Z,4.10
2023-03-20T23:59:25.699Z,4.09
